sensor_id;sensor_type;location;lat;lon;timestamp;pressure;altitude;pressure_sealevel;temperature;humidity
47240;BME280;32978;53.586;10.052;2023-03-22T00:01:24;100908.81;;;8.04;100.00
47240;BME280;32978;53.586;10.052;2023-03-22T00:06:32;100903.22;;;8.14;100.00
47240;BME280;32978;53.586;10.052;2023-03-22T00:12:15;100903.44;;;8.18;100.00
47240;BME280;32978;53.586;10.052;2023-03-22T00:17:12;100892.69;;;8.27;100.00
47240;BME280;32978;53.586;10.052;2023-03-22T00:22:09;100896.41;;;8.31;100.00
47240;BME280;32978;53.586;10.052;2023-03-22T00:27:10;100887.06;;;8.37;100.00
47240;BME280;32978;53.586;10.052;2023-03-22T00:32:08;100871.22;;;8.39;100.00
47240;BME280;32978;53.586;10.052;2023-03-22T00:37:06;100872.63;;;8.36;100.00
47240;BME280;32978;53.586;10.052;2023-03-22T00:42:04;100873.22;;;8.33;100.00
47240;BME280;32978;53.586;10.052;2023-03-22T00:47:01;100873.44;;;8.37;100.00
47240;BME280;32978;53.586;10.052;2023-03-22T00:51:58;100864.91;;;8.43;100.00
47240;BME280;32978;53.586;10.052;2023-03-22T00:57:00;100859.16;;;8.45;100.00
47240;BME280;32978;53.586;10.052;2023-03-22T01:02:52;100851.63;;;8.37;100.00
47240;BME280;32978;53.586;10.052;2023-03-22T01:20:28;100842.31;;;8.57;100.00
47240;BME280;32978;53.586;10.052;2023-03-22T01:25:25;100825.75;;;8.53;100.00
47240;BME280;32978;53.586;10.052;2023-03-22T01:30:21;100821.94;;;8.54;100.00
47240;BME280;32978;53.586;10.052;2023-03-22T01:35:18;100818.59;;;8.57;100.00
47240;BME280;32978;53.586;10.052;2023-03-22T01:40:14;100813.94;;;8.44;100.00
47240;BME280;32978;53.586;10.052;2023-03-22T01:50:11;100802.22;;;8.43;100.00
47240;BME280;32978;53.586;10.052;2023-03-22T01:55:07;100795.97;;;8.43;100.00
47240;BME280;32978;53.586;10.052;2023-03-22T02:00:07;100782.25;;;8.48;100.00
47240;BME280;32978;53.586;10.052;2023-03-22T02:05:06;100781.44;;;8.48;100.00
47240;BME280;32978;53.586;10.052;2023-03-22T02:10:03;100775.38;;;8.51;100.00
47240;BME280;32978;53.586;10.052;2023-03-22T02:15:15;100776.19;;;8.51;100.00
47240;BME280;32978;53.586;10.052;2023-03-22T02:20:51;100764.31;;;8.47;100.00
47240;BME280;32978;53.586;10.052;2023-03-22T02:31:25;100765.84;;;8.34;100.00
47240;BME280;32978;53.586;10.052;2023-03-22T02:41:39;100748.72;;;8.34;100.00
47240;BME280;32978;53.586;10.052;2023-03-22T02:51:46;100737.19;;;8.37;100.00
47240;BME280;32978;53.586;10.052;2023-03-22T02:56:59;100737.19;;;8.37;100.00
47240;BME280;32978;53.586;10.052;2023-03-22T03:02:01;100735.59;;;8.36;100.00
47240;BME280;32978;53.586;10.052;2023-03-22T03:07:07;100728.00;;;8.33;100.00
47240;BME280;32978;53.586;10.052;2023-03-22T03:12:12;100727.03;;;8.29;100.00
47240;BME280;32978;53.586;10.052;2023-03-22T03:17:20;100721.88;;;8.27;100.00
47240;BME280;32978;53.586;10.052;2023-03-22T03:33:12;100712.03;;;8.45;100.00
47240;BME280;32978;53.586;10.052;2023-03-22T03:38:15;100708.16;;;8.46;100.00
47240;BME280;32978;53.586;10.052;2023-03-22T03:43:14;100701.13;;;8.45;100.00
47240;BME280;32978;53.586;10.052;2023-03-22T03:48:18;100703.13;;;8.53;100.00
47240;BME280;32978;53.586;10.052;2023-03-22T03:53:15;100701.63;;;8.61;100.00
47240;BME280;32978;53.586;10.052;2023-03-22T03:58:12;100685.03;;;8.71;100.00
47240;BME280;32978;53.586;10.052;2023-03-22T04:03:08;100690.16;;;8.87;100.00
47240;BME280;32978;53.586;10.052;2023-03-22T04:08:05;100681.22;;;8.95;100.00
47240;BME280;32978;53.586;10.052;2023-03-22T04:13:02;100678.72;;;8.98;100.00
47240;BME280;32978;53.586;10.052;2023-03-22T04:17:58;100689.13;;;8.96;100.00
47240;BME280;32978;53.586;10.052;2023-03-22T04:22:55;100673.72;;;9.00;100.00
47240;BME280;32978;53.586;10.052;2023-03-22T04:27:53;100674.72;;;9.04;100.00
47240;BME280;32978;53.586;10.052;2023-03-22T04:32:51;100668.28;;;9.00;100.00
47240;BME280;32978;53.586;10.052;2023-03-22T04:37:47;100660.59;;;9.02;100.00
47240;BME280;32978;53.586;10.052;2023-03-22T04:42:44;100666.50;;;8.96;100.00
47240;BME280;32978;53.586;10.052;2023-03-22T04:47:40;100661.03;;;8.96;100.00
47240;BME280;32978;53.586;10.052;2023-03-22T04:52:37;100653.78;;;8.91;100.00
47240;BME280;32978;53.586;10.052;2023-03-22T04:57:34;100649.13;;;8.92;100.00
47240;BME280;32978;53.586;10.052;2023-03-22T05:02:30;100654.25;;;8.93;100.00
47240;BME280;32978;53.586;10.052;2023-03-22T05:07:27;100655.38;;;8.92;100.00
47240;BME280;32978;53.586;10.052;2023-03-22T05:12:23;100652.38;;;8.94;100.00
47240;BME280;32978;53.586;10.052;2023-03-22T05:17:21;100646.09;;;8.93;100.00
47240;BME280;32978;53.586;10.052;2023-03-22T05:22:17;100643.84;;;8.95;100.00
47240;BME280;32978;53.586;10.052;2023-03-22T05:27:14;100649.69;;;9.02;100.00
47240;BME280;32978;53.586;10.052;2023-03-22T05:32:10;100651.91;;;9.00;100.00
47240;BME280;32978;53.586;10.052;2023-03-22T05:37:07;100653.53;;;9.01;100.00
47240;BME280;32978;53.586;10.052;2023-03-22T05:42:03;100658.38;;;9.04;100.00
47240;BME280;32978;53.586;10.052;2023-03-22T05:47:00;100663.22;;;9.08;100.00
47240;BME280;32978;53.586;10.052;2023-03-22T05:51:57;100656.72;;;9.17;100.00
47240;BME280;32978;53.586;10.052;2023-03-22T05:56:53;100657.50;;;9.18;100.00
47240;BME280;32978;53.586;10.052;2023-03-22T06:01:51;100656.88;;;9.21;100.00
47240;BME280;32978;53.586;10.052;2023-03-22T06:06:47;100657.72;;;9.21;100.00
47240;BME280;32978;53.586;10.052;2023-03-22T06:11:44;100655.03;;;9.30;100.00
47240;BME280;32978;53.586;10.052;2023-03-22T06:16:40;100638.06;;;9.33;100.00
47240;BME280;32978;53.586;10.052;2023-03-22T06:21:37;100628.31;;;9.41;100.00
47240;BME280;32978;53.586;10.052;2023-03-22T06:26:34;100631.59;;;9.52;100.00
47240;BME280;32978;53.586;10.052;2023-03-22T06:31:30;100641.09;;;9.63;100.00
47240;BME280;32978;53.586;10.052;2023-03-22T06:36:27;100625.25;;;9.74;100.00
47240;BME280;32978;53.586;10.052;2023-03-22T06:41:25;100625.81;;;9.84;100.00
47240;BME280;32978;53.586;10.052;2023-03-22T06:46:22;100638.06;;;9.96;100.00
47240;BME280;32978;53.586;10.052;2023-03-22T06:51:18;100636.63;;;9.98;100.00
47240;BME280;32978;53.586;10.052;2023-03-22T06:56:15;100637.56;;;9.94;100.00
47240;BME280;32978;53.586;10.052;2023-03-22T07:01:11;100636.09;;;9.87;100.00
47240;BME280;32978;53.586;10.052;2023-03-22T07:06:08;100636.72;;;9.84;100.00
47240;BME280;32978;53.586;10.052;2023-03-22T07:11:05;100634.47;;;9.86;100.00
47240;BME280;32978;53.586;10.052;2023-03-22T07:16:02;100630.31;;;9.89;100.00
47240;BME280;32978;53.586;10.052;2023-03-22T07:20:58;100631.94;;;9.99;100.00
47240;BME280;32978;53.586;10.052;2023-03-22T07:25:55;100617.81;;;9.97;100.00
47240;BME280;32978;53.586;10.052;2023-03-22T07:31:02;100621.81;;;9.99;100.00
47240;BME280;32978;53.586;10.052;2023-03-22T07:35:59;100612.63;;;9.86;100.00
47240;BME280;32978;53.586;10.052;2023-03-22T07:40:56;100602.19;;;9.88;100.00
47240;BME280;32978;53.586;10.052;2023-03-22T07:45:52;100614.56;;;9.95;100.00
47240;BME280;32978;53.586;10.052;2023-03-22T07:50:53;100596.47;;;10.16;100.00
47240;BME280;32978;53.586;10.052;2023-03-22T07:55:50;100594.41;;;10.22;100.00
47240;BME280;32978;53.586;10.052;2023-03-22T08:00:47;100583.66;;;10.17;100.00
47240;BME280;32978;53.586;10.052;2023-03-22T08:05:44;100568.84;;;10.18;100.00
47240;BME280;32978;53.586;10.052;2023-03-22T08:10:41;100551.00;;;10.20;100.00
47240;BME280;32978;53.586;10.052;2023-03-22T08:15:38;100532.72;;;10.29;100.00
47240;BME280;32978;53.586;10.052;2023-03-22T08:20:34;100533.06;;;10.37;100.00
47240;BME280;32978;53.586;10.052;2023-03-22T08:25:33;100530.16;;;10.42;100.00
47240;BME280;32978;53.586;10.052;2023-03-22T08:30:30;100514.09;;;10.40;100.00
47240;BME280;32978;53.586;10.052;2023-03-22T08:35:27;100508.47;;;10.37;100.00
47240;BME280;32978;53.586;10.052;2023-03-22T08:40:23;100516.97;;;10.44;100.00
47240;BME280;32978;53.586;10.052;2023-03-22T08:45:20;100508.78;;;10.61;100.00
47240;BME280;32978;53.586;10.052;2023-03-22T08:50:16;100507.25;;;11.07;100.00
47240;BME280;32978;53.586;10.052;2023-03-22T08:55:13;100493.25;;;11.47;100.00
47240;BME280;32978;53.586;10.052;2023-03-22T09:00:12;100486.16;;;11.46;100.00
47240;BME280;32978;53.586;10.052;2023-03-22T09:05:09;100486.75;;;11.61;100.00
47240;BME280;32978;53.586;10.052;2023-03-22T09:10:07;100483.63;;;11.71;100.00
47240;BME280;32978;53.586;10.052;2023-03-22T09:15:04;100474.94;;;11.98;100.00
47240;BME280;32978;53.586;10.052;2023-03-22T09:20:01;100469.88;;;12.30;100.00
47240;BME280;32978;53.586;10.052;2023-03-22T09:25:08;100458.22;;;12.33;100.00
47240;BME280;32978;53.586;10.052;2023-03-22T09:30:08;100456.47;;;12.50;100.00
47240;BME280;32978;53.586;10.052;2023-03-22T09:35:05;100463.97;;;12.40;100.00
47240;BME280;32978;53.586;10.052;2023-03-22T09:40:02;100455.31;;;12.51;100.00
47240;BME280;32978;53.586;10.052;2023-03-22T09:45:02;100440.84;;;12.29;100.00
47240;BME280;32978;53.586;10.052;2023-03-22T09:50:04;100435.56;;;12.24;100.00
47240;BME280;32978;53.586;10.052;2023-03-22T09:55:02;100429.63;;;12.22;100.00
47240;BME280;32978;53.586;10.052;2023-03-22T10:00:18;100434.97;;;12.39;100.00
47240;BME280;32978;53.586;10.052;2023-03-22T10:10:17;100410.03;;;12.66;100.00
47240;BME280;32978;53.586;10.052;2023-03-22T10:15:18;100411.78;;;12.95;100.00
47240;BME280;32978;53.586;10.052;2023-03-22T10:20:25;100402.19;;;12.89;100.00
47240;BME280;32978;53.586;10.052;2023-03-22T10:25:32;100409.25;;;12.90;100.00
47240;BME280;32978;53.586;10.052;2023-03-22T10:30:33;100420.44;;;12.72;100.00
47240;BME280;32978;53.586;10.052;2023-03-22T10:35:31;100417.88;;;12.55;100.00
47240;BME280;32978;53.586;10.052;2023-03-22T10:40:31;100424.75;;;12.61;100.00
47240;BME280;32978;53.586;10.052;2023-03-22T10:45:30;100416.78;;;12.80;100.00
47240;BME280;32978;53.586;10.052;2023-03-22T10:50:31;100417.47;;;12.90;100.00
47240;BME280;32978;53.586;10.052;2023-03-22T10:55:30;100409.75;;;13.16;100.00
47240;BME280;32978;53.586;10.052;2023-03-22T11:00:27;100418.88;;;13.20;100.00
47240;BME280;32978;53.586;10.052;2023-03-22T11:05:25;100430.56;;;13.17;100.00
47240;BME280;32978;53.586;10.052;2023-03-22T11:10:25;100408.13;;;13.03;100.00
47240;BME280;32978;53.586;10.052;2023-03-22T11:15:27;100411.78;;;12.95;100.00
47240;BME280;32978;53.586;10.052;2023-03-22T11:20:23;100406.78;;;13.09;100.00
47240;BME280;32978;53.586;10.052;2023-03-22T11:25:28;100428.03;;;13.12;100.00
47240;BME280;32978;53.586;10.052;2023-03-22T11:30:27;100422.66;;;12.91;100.00
47240;BME280;32978;53.586;10.052;2023-03-22T11:35:24;100414.78;;;13.02;100.00
47240;BME280;32978;53.586;10.052;2023-03-22T11:40:27;100420.84;;;13.08;100.00
47240;BME280;32978;53.586;10.052;2023-03-22T11:45:30;100434.97;;;12.85;100.00
47240;BME280;32978;53.586;10.052;2023-03-22T11:50:29;100418.88;;;12.96;100.00
47240;BME280;32978;53.586;10.052;2023-03-22T11:55:28;100431.22;;;12.90;100.00
47240;BME280;32978;53.586;10.052;2023-03-22T12:00:28;100417.53;;;13.02;100.00
47240;BME280;32978;53.586;10.052;2023-03-22T12:05:28;100434.88;;;12.81;100.00
47240;BME280;32978;53.586;10.052;2023-03-22T12:10:37;100414.41;;;12.79;100.00
47240;BME280;32978;53.586;10.052;2023-03-22T12:15:37;100412.47;;;12.92;100.00
47240;BME280;32978;53.586;10.052;2023-03-22T12:20:54;100409.16;;;12.86;100.00
47240;BME280;32978;53.586;10.052;2023-03-22T12:31:01;100407.91;;;12.96;100.00
47240;BME280;32978;53.586;10.052;2023-03-22T12:36:03;100397.34;;;12.85;100.00
47240;BME280;32978;53.586;10.052;2023-03-22T12:41:04;100396.00;;;12.79;100.00
47240;BME280;32978;53.586;10.052;2023-03-22T12:46:04;100397.13;;;12.78;100.00
47240;BME280;32978;53.586;10.052;2023-03-22T12:51:06;100405.81;;;12.80;100.00
47240;BME280;32978;53.586;10.052;2023-03-22T12:56:03;100392.78;;;12.65;100.00
47240;BME280;32978;53.586;10.052;2023-03-22T13:01:27;100407.69;;;11.80;100.00
47240;BME280;32978;53.586;10.052;2023-03-22T13:06:53;100430.09;;;11.52;100.00
47240;BME280;32978;53.586;10.052;2023-03-22T13:17:38;100448.44;;;10.84;100.00
47240;BME280;32978;53.586;10.052;2023-03-22T13:27:56;100448.50;;;10.49;100.00
47240;BME280;32978;53.586;10.052;2023-03-22T13:38:16;100462.78;;;10.46;100.00
47240;BME280;32978;53.586;10.052;2023-03-22T14:10:15;100445.06;;;10.78;100.00
47240;BME280;32978;53.586;10.052;2023-03-22T14:15:16;100456.63;;;10.84;100.00
47240;BME280;32978;53.586;10.052;2023-03-22T14:20:20;100461.09;;;10.88;100.00
47240;BME280;32978;53.586;10.052;2023-03-22T14:25:19;100450.31;;;10.92;100.00
47240;BME280;32978;53.586;10.052;2023-03-22T14:30:35;100451.63;;;10.86;100.00
47240;BME280;32978;53.586;10.052;2023-03-22T14:35:44;100452.56;;;10.90;100.00
47240;BME280;32978;53.586;10.052;2023-03-22T14:40:40;100431.94;;;11.01;100.00
47240;BME280;32978;53.586;10.052;2023-03-22T14:45:35;100427.72;;;11.12;100.00
47240;BME280;32978;53.586;10.052;2023-03-22T14:50:33;100435.44;;;11.19;100.00
47240;BME280;32978;53.586;10.052;2023-03-22T14:55:28;100449.44;;;11.09;100.00
47240;BME280;32978;53.586;10.052;2023-03-22T15:00:26;100456.38;;;11.06;100.00
47240;BME280;32978;53.586;10.052;2023-03-22T15:05:24;100460.25;;;11.05;100.00
47240;BME280;32978;53.586;10.052;2023-03-22T15:10:23;100448.38;;;11.01;100.00
47240;BME280;32978;53.586;10.052;2023-03-22T15:15:26;100452.09;;;10.97;100.00
47240;BME280;32978;53.586;10.052;2023-03-22T15:20:26;100445.16;;;10.99;100.00
47240;BME280;32978;53.586;10.052;2023-03-22T15:25:30;100439.00;;;11.02;100.00
47240;BME280;32978;53.586;10.052;2023-03-22T15:30:27;100435.66;;;11.05;100.00
47240;BME280;32978;53.586;10.052;2023-03-22T15:35:25;100438.66;;;11.12;100.00
47240;BME280;32978;53.586;10.052;2023-03-22T15:40:36;100437.38;;;11.19;100.00
47240;BME280;32978;53.586;10.052;2023-03-22T15:45:33;100431.91;;;11.19;100.00
47240;BME280;32978;53.586;10.052;2023-03-22T15:50:29;100437.38;;;11.19;100.00
47240;BME280;32978;53.586;10.052;2023-03-22T15:55:37;100442.19;;;11.22;100.00
47240;BME280;32978;53.586;10.052;2023-03-22T16:00:37;100449.25;;;11.23;100.00
47240;BME280;32978;53.586;10.052;2023-03-22T16:05:37;100446.19;;;11.24;100.00
47240;BME280;32978;53.586;10.052;2023-03-22T16:10:35;100460.19;;;11.23;100.00
47240;BME280;32978;53.586;10.052;2023-03-22T16:15:32;100460.84;;;11.20;100.00
47240;BME280;32978;53.586;10.052;2023-03-22T16:20:28;100458.78;;;11.16;100.00
47240;BME280;32978;53.586;10.052;2023-03-22T16:25:26;100465.38;;;11.15;100.00
47240;BME280;32978;53.586;10.052;2023-03-22T16:30:23;100471.34;;;11.09;100.00
47240;BME280;32978;53.586;10.052;2023-03-22T16:35:21;100466.22;;;11.07;100.00
47240;BME280;32978;53.586;10.052;2023-03-22T16:40:19;100465.75;;;11.05;100.00
47240;BME280;32978;53.586;10.052;2023-03-22T16:45:28;100467.03;;;10.99;100.00
47240;BME280;32978;53.586;10.052;2023-03-22T16:50:26;100475.59;;;10.89;100.00
47240;BME280;32978;53.586;10.052;2023-03-22T16:55:23;100470.31;;;10.84;100.00
47240;BME280;32978;53.586;10.052;2023-03-22T17:00:21;100472.56;;;10.82;100.00
47240;BME280;32978;53.586;10.052;2023-03-22T17:05:19;100468.38;;;10.76;100.00
47240;BME280;32978;53.586;10.052;2023-03-22T17:10:16;100476.91;;;10.74;100.00
47240;BME280;32978;53.586;10.052;2023-03-22T17:15:34;100486.25;;;10.73;100.00
47240;BME280;32978;53.586;10.052;2023-03-22T17:20:32;100481.28;;;10.66;100.00
47240;BME280;32978;53.586;10.052;2023-03-22T17:25:30;100484.31;;;10.65;100.00
47240;BME280;32978;53.586;10.052;2023-03-22T17:30:29;100488.84;;;10.61;100.00
47240;BME280;32978;53.586;10.052;2023-03-22T17:35:26;100502.81;;;10.59;100.00
47240;BME280;32978;53.586;10.052;2023-03-22T17:40:25;100493.00;;;10.58;100.00
47240;BME280;32978;53.586;10.052;2023-03-22T17:45:28;100487.09;;;10.56;100.00
47240;BME280;32978;53.586;10.052;2023-03-22T17:50:24;100483.03;;;10.53;100.00
47240;BME280;32978;53.586;10.052;2023-03-22T17:55:26;100483.22;;;10.57;100.00
47240;BME280;32978;53.586;10.052;2023-03-22T18:00:23;100475.50;;;10.59;100.00
47240;BME280;32978;53.586;10.052;2023-03-22T18:05:24;100464.56;;;10.59;100.00
47240;BME280;32978;53.586;10.052;2023-03-22T18:10:20;100456.03;;;10.61;100.00
47240;BME280;32978;53.586;10.052;2023-03-22T18:15:17;100442.84;;;10.54;100.00
47240;BME280;32978;53.586;10.052;2023-03-22T18:20:14;100444.13;;;10.57;100.00
47240;BME280;32978;53.586;10.052;2023-03-22T18:25:10;100437.69;;;10.61;100.00
47240;BME280;32978;53.586;10.052;2023-03-22T18:30:08;100431.75;;;10.59;100.00
47240;BME280;32978;53.586;10.052;2023-03-22T18:35:04;100440.13;;;10.54;100.00
47240;BME280;32978;53.586;10.052;2023-03-22T18:40:00;100444.28;;;10.60;100.00
47240;BME280;32978;53.586;10.052;2023-03-22T18:44:55;100440.25;;;10.66;100.00
47240;BME280;32978;53.586;10.052;2023-03-22T18:49:52;100425.13;;;10.69;100.00
47240;BME280;32978;53.586;10.052;2023-03-22T18:54:47;100429.78;;;10.68;100.00
47240;BME280;32978;53.586;10.052;2023-03-22T18:59:43;100438.00;;;10.77;100.00
47240;BME280;32978;53.586;10.052;2023-03-22T19:04:38;100438.13;;;10.81;100.00
47240;BME280;32978;53.586;10.052;2023-03-22T19:09:33;100432.03;;;10.84;100.00
47240;BME280;32978;53.586;10.052;2023-03-22T19:14:29;100437.50;;;10.84;100.00
47240;BME280;32978;53.586;10.052;2023-03-22T19:19:25;100432.03;;;10.84;100.00
47240;BME280;32978;53.586;10.052;2023-03-22T19:24:20;100440.84;;;10.89;100.00
47240;BME280;32978;53.586;10.052;2023-03-22T19:29:16;100430.69;;;10.90;100.00
47240;BME280;32978;53.586;10.052;2023-03-22T19:34:11;100425.88;;;10.87;100.00
47240;BME280;32978;53.586;10.052;2023-03-22T19:39:07;100426.84;;;10.91;100.00
47240;BME280;32978;53.586;10.052;2023-03-22T19:44:03;100427.00;;;10.86;100.00
47240;BME280;32978;53.586;10.052;2023-03-22T19:49:00;100425.22;;;10.90;100.00
47240;BME280;32978;53.586;10.052;2023-03-22T19:53:56;100418.16;;;10.89;100.00
47240;BME280;32978;53.586;10.052;2023-03-22T19:58:51;100412.03;;;10.92;100.00
47240;BME280;32978;53.586;10.052;2023-03-22T20:03:47;100408.81;;;10.90;100.00
47240;BME280;32978;53.586;10.052;2023-03-22T20:08:42;100402.22;;;10.91;100.00
47240;BME280;32978;53.586;10.052;2023-03-22T20:13:38;100401.09;;;10.92;100.00
47240;BME280;32978;53.586;10.052;2023-03-22T20:18:33;100401.09;;;10.92;100.00
47240;BME280;32978;53.586;10.052;2023-03-22T20:23:28;100396.56;;;10.96;100.00
47240;BME280;32978;53.586;10.052;2023-03-22T20:28:25;100399.31;;;10.96;100.00
47240;BME280;32978;53.586;10.052;2023-03-22T20:33:22;100418.28;;;11.01;100.00
47240;BME280;32978;53.586;10.052;2023-03-22T20:38:18;100408.69;;;10.78;100.00
47240;BME280;32978;53.586;10.052;2023-03-22T20:43:13;100396.50;;;10.66;100.00
47240;BME280;32978;53.586;10.052;2023-03-22T20:48:09;100396.69;;;10.61;100.00
47240;BME280;32978;53.586;10.052;2023-03-22T20:53:05;100388.66;;;10.56;100.00
47240;BME280;32978;53.586;10.052;2023-03-22T20:58:00;100377.88;;;10.51;100.00
47240;BME280;32978;53.586;10.052;2023-03-22T21:02:56;100357.44;;;10.57;100.00
47240;BME280;32978;53.586;10.052;2023-03-22T21:07:51;100349.06;;;10.62;100.00
47240;BME280;32978;53.586;10.052;2023-03-22T21:12:47;100346.03;;;10.64;100.00
47240;BME280;32978;53.586;10.052;2023-03-22T21:17:42;100354.50;;;10.71;100.00
47240;BME280;32978;53.586;10.052;2023-03-22T21:22:38;100347.59;;;10.73;100.00
47240;BME280;32978;53.586;10.052;2023-03-22T21:27:33;100341.63;;;10.71;100.00
47240;BME280;32978;53.586;10.052;2023-03-22T21:32:29;100322.97;;;10.73;100.00
47240;BME280;32978;53.586;10.052;2023-03-22T21:37:25;100338.28;;;10.74;100.00
47240;BME280;32978;53.586;10.052;2023-03-22T21:42:21;100331.66;;;10.76;100.00
47240;BME280;32978;53.586;10.052;2023-03-22T21:47:18;100336.03;;;10.68;100.00
47240;BME280;32978;53.586;10.052;2023-03-22T21:52:24;100347.69;;;10.39;100.00
47240;BME280;32978;53.586;10.052;2023-03-22T21:57:22;100341.78;;;10.19;100.00
47240;BME280;32978;53.586;10.052;2023-03-22T22:02:21;100326.97;;;10.20;100.00
47240;BME280;32978;53.586;10.052;2023-03-22T22:07:17;100331.31;;;10.21;100.00
47240;BME280;32978;53.586;10.052;2023-03-22T22:12:13;100318.28;;;10.18;100.00
47240;BME280;32978;53.586;10.052;2023-03-22T22:17:11;100321.50;;;10.20;100.00
47240;BME280;32978;53.586;10.052;2023-03-22T22:22:07;100307.84;;;10.29;100.00
47240;BME280;32978;53.586;10.052;2023-03-22T22:27:04;100309.25;;;10.44;100.00
47240;BME280;32978;53.586;10.052;2023-03-22T22:32:10;100281.28;;;10.47;100.00
47240;BME280;32978;53.586;10.052;2023-03-22T22:37:18;100285.78;;;10.51;100.00
47240;BME280;32978;53.586;10.052;2023-03-22T22:43:14;100290.09;;;10.52;100.00
47240;BME280;32978;53.586;10.052;2023-03-22T22:48:09;100300.53;;;10.59;100.00
47240;BME280;32978;53.586;10.052;2023-03-22T22:53:30;100291.34;;;10.64;100.00
47240;BME280;32978;53.586;10.052;2023-03-22T23:18:42;100265.56;;;10.26;100.00
47240;BME280;32978;53.586;10.052;2023-03-22T23:23:44;100265.13;;;10.07;100.00
47240;BME280;32978;53.586;10.052;2023-03-22T23:28:42;100268.53;;;9.95;100.00
47240;BME280;32978;53.586;10.052;2023-03-22T23:33:46;100262.44;;;9.89;100.00
47240;BME280;32978;53.586;10.052;2023-03-22T23:39:07;100265.84;;;9.78;100.00
47240;BME280;32978;53.586;10.052;2023-03-22T23:44:55;100258.78;;;9.68;100.00
47240;BME280;32978;53.586;10.052;2023-03-22T23:49:50;100267.91;;;9.72;100.00
47240;BME280;32978;53.586;10.052;2023-03-22T23:54:46;100272.28;;;9.73;100.00
47240;BME280;32978;53.586;10.052;2023-03-22T23:59:41;100268.09;;;9.67;100.00
